createdAt,value
2023-04-06T00:00:55.765Z,43.20
2023-04-06T00:03:57.391Z,39.20
2023-04-06T00:06:59.182Z,36.40
2023-04-06T00:10:00.842Z,34.00
2023-04-06T00:13:02.500Z,38.50
2023-04-06T00:16:04.441Z,37.90
2023-04-06T00:19:06.128Z,41.10
2023-04-06T00:22:08.100Z,44.70
2023-04-06T00:25:09.899Z,46.50
2023-04-06T00:28:11.613Z,44.40
2023-04-06T00:31:17.671Z,38.30
2023-04-06T00:37:20.979Z,40.10
2023-04-06T00:40:22.642Z,35.10
2023-04-06T00:43:24.638Z,41.10
2023-04-06T00:46:26.377Z,40.00
2023-04-06T00:49:31.087Z,40.30
2023-04-06T00:52:32.811Z,46.00
2023-04-06T00:55:34.410Z,44.10
2023-04-06T00:58:36.400Z,40.80
2023-04-06T01:01:38.043Z,40.60
2023-04-06T01:07:41.362Z,33.90
2023-04-06T01:10:42.918Z,37.40
2023-04-06T01:13:44.434Z,51.70
2023-04-06T01:16:46.067Z,54.00
2023-04-06T01:19:47.656Z,54.00
2023-04-06T01:22:49.243Z,41.30
2023-04-06T01:25:50.908Z,51.80
2023-04-06T01:28:52.574Z,50.80
2023-04-06T01:31:54.182Z,49.30
2023-04-06T01:34:55.870Z,49.20
2023-04-06T01:37:57.593Z,43.40
2023-04-06T01:44:00.885Z,43.30
2023-04-06T01:47:02.483Z,45.60
2023-04-06T01:50:04.480Z,45.10
2023-04-06T01:53:06.080Z,42.40
2023-04-06T01:56:07.785Z,45.40
2023-04-06T01:59:09.563Z,50.30
2023-04-06T02:02:11.617Z,48.10
2023-04-06T02:05:13.254Z,50.20
2023-04-06T02:08:14.868Z,49.10
2023-04-06T02:11:16.528Z,43.90
2023-04-06T02:14:18.121Z,43.50
2023-04-06T02:17:19.743Z,45.10
2023-04-06T02:20:21.440Z,43.70
2023-04-06T02:23:23.027Z,49.30
2023-04-06T02:26:24.615Z,47.30
2023-04-06T02:29:26.215Z,46.60
2023-04-06T02:32:27.786Z,44.60
2023-04-06T02:35:31.278Z,43.50
2023-04-06T02:38:32.907Z,50.80
2023-04-06T02:41:34.493Z,49.20
2023-04-06T02:44:36.008Z,40.60
2023-04-06T02:47:37.574Z,35.00
2023-04-06T02:50:39.120Z,50.00
2023-04-06T02:53:41.476Z,39.00
2023-04-06T02:56:43.069Z,54.50
2023-04-06T02:59:44.737Z,47.90
2023-04-06T03:05:48.210Z,47.50
2023-04-06T03:11:51.570Z,52.10
2023-04-06T03:14:53.109Z,57.40
2023-04-06T03:17:54.707Z,52.20
2023-04-06T03:23:58.140Z,60.60
2023-04-06T03:26:59.711Z,54.40
2023-04-06T03:30:01.326Z,51.50
2023-04-06T03:33:03.060Z,56.50
2023-04-06T03:42:08.947Z,59.40
2023-04-06T03:45:10.794Z,70.30
2023-04-06T03:51:13.833Z,66.30
2023-04-06T03:54:15.366Z,64.40
2023-04-06T03:57:16.894Z,60.00
2023-04-06T04:00:18.559Z,60.40
2023-04-06T04:03:20.291Z,52.30
2023-04-06T04:09:23.592Z,45.20
2023-04-06T04:12:25.127Z,51.70
2023-04-06T04:15:26.680Z,46.30
2023-04-06T04:18:28.268Z,44.00
2023-04-06T04:21:31.015Z,47.30
2023-04-06T04:24:32.640Z,45.20
2023-04-06T04:27:34.139Z,45.20
2023-04-06T04:30:35.707Z,42.80
2023-04-06T04:33:37.378Z,46.90
2023-04-06T04:36:38.917Z,45.80
2023-04-06T04:42:42.374Z,40.20
2023-04-06T04:45:43.901Z,48.40
2023-04-06T04:48:45.588Z,51.50
2023-04-06T04:51:47.171Z,46.40
2023-04-06T04:54:48.742Z,49.50
2023-04-06T04:57:50.282Z,47.60
2023-04-06T05:00:51.874Z,43.10
2023-04-06T05:03:53.695Z,45.20
2023-04-06T05:10:09.900Z,46.50
2023-04-06T05:13:11.628Z,44.20
2023-04-06T05:16:13.439Z,43.90
2023-04-06T05:19:15.152Z,47.80
2023-04-06T05:22:16.656Z,50.90
2023-04-06T05:25:18.278Z,50.40
2023-04-06T05:28:20.015Z,43.00
2023-04-06T05:31:21.760Z,44.90
2023-04-06T05:37:24.832Z,45.50
2023-04-06T05:40:26.427Z,45.80
2023-04-06T05:43:27.976Z,46.80
2023-04-06T05:46:29.693Z,53.80
2023-04-06T05:49:31.280Z,50.60
2023-04-06T05:52:32.853Z,44.80
2023-04-06T05:55:34.343Z,47.40
2023-04-06T05:58:35.869Z,51.20
2023-04-06T06:01:37.618Z,56.90
2023-04-06T06:04:39.245Z,50.40
2023-04-06T06:07:40.792Z,51.90
2023-04-06T06:10:42.313Z,56.90
2023-04-06T06:13:43.932Z,48.10
2023-04-06T06:16:45.476Z,39.00
2023-04-06T06:19:47.060Z,38.40
2023-04-06T06:22:48.692Z,39.00
2023-04-06T06:25:50.271Z,33.50
2023-04-06T06:28:51.996Z,40.00
2023-04-06T06:31:53.537Z,37.70
2023-04-06T06:34:55.112Z,37.00
2023-04-06T06:37:56.748Z,42.50
2023-04-06T06:40:58.857Z,38.70
2023-04-06T06:47:01.837Z,39.70
2023-04-06T06:50:03.703Z,41.10
2023-04-06T06:53:05.312Z,52.10
2023-04-06T06:56:07.104Z,36.00
2023-04-06T07:02:10.189Z,35.90
2023-04-06T07:05:24.347Z,37.30
2023-04-06T07:08:29.525Z,34.00
2023-04-06T07:14:32.861Z,31.00
2023-04-06T07:17:34.516Z,34.20
2023-04-06T07:20:36.159Z,35.00
2023-04-06T07:23:38.088Z,36.00
2023-04-06T07:26:39.710Z,35.50
2023-04-06T07:29:41.330Z,33.50
2023-04-06T07:32:43.032Z,34.70
2023-04-06T07:35:44.788Z,35.40
2023-04-06T07:38:46.360Z,31.70
2023-04-06T07:41:48.053Z,30.00
2023-04-06T07:44:49.555Z,33.80
2023-04-06T07:50:53.053Z,37.40
2023-04-06T07:53:54.601Z,35.20
2023-04-06T07:56:56.148Z,31.50
2023-04-06T07:59:57.841Z,33.40
2023-04-06T08:06:01.224Z,28.60
2023-04-06T08:12:04.799Z,28.70
2023-04-06T08:18:09.502Z,30.00
2023-04-06T08:21:11.113Z,25.70
2023-04-06T08:24:13.515Z,24.30
2023-04-06T08:27:15.136Z,22.00
2023-04-06T08:30:16.823Z,32.70
2023-04-06T08:33:18.560Z,25.50
2023-04-06T08:39:21.478Z,23.00
2023-04-06T08:42:26.661Z,23.90
2023-04-06T08:45:28.308Z,27.20
2023-04-06T08:48:30.242Z,29.30
2023-04-06T08:54:33.396Z,27.70
2023-04-06T08:57:37.123Z,23.60
2023-04-06T09:00:39.789Z,31.30
2023-04-06T09:03:42.229Z,26.60
2023-04-06T09:06:44.440Z,27.10
2023-04-06T09:09:46.251Z,32.00
2023-04-06T09:12:47.791Z,68.80
2023-04-06T09:16:03.020Z,32.20
2023-04-06T09:19:05.416Z,30.30
2023-04-06T09:22:07.752Z,30.30
2023-04-06T09:25:10.270Z,25.00
2023-04-06T09:28:11.846Z,27.80
2023-04-06T09:31:21.976Z,28.50
2023-04-06T09:34:23.720Z,28.50
2023-04-06T09:37:29.257Z,29.20
2023-04-06T09:40:31.033Z,26.60
2023-04-06T09:43:32.955Z,25.40
2023-04-06T09:49:59.923Z,25.20
2023-04-06T09:53:02.173Z,25.30
2023-04-06T09:56:05.916Z,23.50
2023-04-06T09:59:11.245Z,25.10
2023-04-06T10:02:22.700Z,27.30
2023-04-06T10:05:35.053Z,27.70
2023-04-06T10:08:39.506Z,24.00
2023-04-06T10:11:41.824Z,26.50
2023-04-06T10:14:44.005Z,26.50
2023-04-06T10:17:46.025Z,25.60
2023-04-06T10:20:52.588Z,26.60
2023-04-06T10:24:02.492Z,26.10
2023-04-06T10:27:05.074Z,23.10
2023-04-06T10:30:07.813Z,25.30
2023-04-06T10:33:16.338Z,24.20
2023-04-06T10:36:26.602Z,26.00
2023-04-06T10:39:28.136Z,27.40
2023-04-06T10:42:38.853Z,25.30
2023-04-06T10:45:41.487Z,24.80
2023-04-06T10:48:47.153Z,26.10
2023-04-06T10:51:53.094Z,27.30
2023-04-06T10:54:54.703Z,30.40
2023-04-06T10:57:56.307Z,25.10
2023-04-06T11:03:59.682Z,29.40
2023-04-06T11:07:01.551Z,26.50
2023-04-06T11:13:08.037Z,30.90
2023-04-06T11:16:14.464Z,27.90
2023-04-06T11:19:16.128Z,31.00
2023-04-06T11:25:19.816Z,27.50
2023-04-06T11:28:21.487Z,25.40
2023-04-06T11:34:30.058Z,28.00
2023-04-06T11:37:31.747Z,31.70
2023-04-06T11:43:34.766Z,35.60
2023-04-06T11:46:36.392Z,32.90
2023-04-06T11:49:39.737Z,31.50
2023-04-06T11:52:42.161Z,31.10
2023-04-06T11:55:43.904Z,36.30
2023-04-06T11:58:45.617Z,32.30
2023-04-06T12:04:48.887Z,29.20
2023-04-06T12:07:50.486Z,29.00
2023-04-06T12:10:52.299Z,29.80
2023-04-06T12:13:54.392Z,29.10
2023-04-06T12:16:55.980Z,29.70
2023-04-06T12:20:05.108Z,28.90
2023-04-06T12:23:11.424Z,27.80
2023-04-06T12:29:15.306Z,30.70
2023-04-06T12:32:16.854Z,31.40
2023-04-06T12:35:18.475Z,32.50
2023-04-06T12:38:20.072Z,31.80
2023-04-06T12:41:21.666Z,32.00
2023-04-06T12:44:24.755Z,34.60
2023-04-06T12:47:27.212Z,30.60
2023-04-06T12:50:29.075Z,27.80
2023-04-06T12:53:31.081Z,31.40
2023-04-06T12:56:32.768Z,30.30
2023-04-06T13:02:36.252Z,30.60
2023-04-06T13:05:45.102Z,36.50
2023-04-06T13:08:46.653Z,27.50
2023-04-06T13:11:48.228Z,33.20
2023-04-06T13:14:49.849Z,34.90
2023-04-06T13:17:51.532Z,28.90
2023-04-06T13:20:53.467Z,31.30
2023-04-06T13:23:55.056Z,31.90
2023-04-06T13:26:56.706Z,33.00
2023-04-06T13:29:58.273Z,33.00
2023-04-06T13:32:59.950Z,31.80
2023-04-06T13:36:01.609Z,31.10
2023-04-06T13:39:03.250Z,29.60
2023-04-06T13:45:07.585Z,29.40
2023-04-06T13:48:09.166Z,30.10
2023-04-06T13:51:12.246Z,33.00
2023-04-06T13:54:13.785Z,33.80
2023-04-06T13:57:15.330Z,33.90
2023-04-06T14:00:17.039Z,32.30
2023-04-06T14:06:31.411Z,35.90
2023-04-06T14:09:34.422Z,34.40
2023-04-06T14:12:36.044Z,34.10
2023-04-06T14:15:37.654Z,34.40
2023-04-06T14:21:41.015Z,35.20
2023-04-06T14:24:42.615Z,34.30
2023-04-06T14:27:44.706Z,37.60
2023-04-06T14:30:46.407Z,35.20
2023-04-06T14:36:49.640Z,32.90
2023-04-06T14:39:51.377Z,33.90
2023-04-06T14:42:52.929Z,32.30
2023-04-06T14:45:54.588Z,43.20
2023-04-06T14:51:58.244Z,37.90
2023-04-06T14:54:59.929Z,35.30
2023-04-06T14:58:02.158Z,32.10
2023-04-06T15:01:04.165Z,33.80
2023-04-06T15:04:06.143Z,40.90
2023-04-06T15:07:07.771Z,39.60
2023-04-06T15:10:10.965Z,36.60
2023-04-06T15:13:13.958Z,37.80
2023-04-06T15:19:17.254Z,36.20
2023-04-06T15:22:18.825Z,34.50
2023-04-06T15:25:20.437Z,35.90
2023-04-06T15:28:22.043Z,40.00
2023-04-06T15:31:35.798Z,37.10
2023-04-06T15:34:39.714Z,35.00
2023-04-06T15:37:41.233Z,35.00
2023-04-06T15:40:47.088Z,38.30
2023-04-06T15:43:49.648Z,38.70
2023-04-06T15:46:51.202Z,38.50
2023-04-06T15:49:52.816Z,39.30
2023-04-06T15:52:54.513Z,37.50
2023-04-06T15:56:04.139Z,34.70
2023-04-06T15:59:05.755Z,36.40
2023-04-06T16:02:07.505Z,40.70
2023-04-06T16:05:09.626Z,40.40
2023-04-06T16:08:11.283Z,41.30
2023-04-06T16:11:12.930Z,49.00
2023-04-06T16:14:14.571Z,52.00
2023-04-06T16:17:16.123Z,47.20
2023-04-06T16:20:17.810Z,45.30
2023-04-06T16:26:21.900Z,43.30
2023-04-06T16:29:23.710Z,45.50
2023-04-06T16:35:26.774Z,45.30
2023-04-06T16:38:28.323Z,43.00
2023-04-06T16:41:29.839Z,45.80
2023-04-06T16:47:33.220Z,52.60
2023-04-06T16:53:38.453Z,48.60
2023-04-06T16:56:40.065Z,44.80
2023-04-06T16:59:41.633Z,42.60
2023-04-06T17:02:47.244Z,44.40
2023-04-06T17:05:49.180Z,43.00
2023-04-06T17:08:50.816Z,44.90
2023-04-06T17:11:53.419Z,46.30
2023-04-06T17:14:55.275Z,42.70
2023-04-06T17:20:59.119Z,47.40
2023-04-06T17:24:00.681Z,47.80
2023-04-06T17:27:02.373Z,46.10
2023-04-06T17:30:04.515Z,49.50
2023-04-06T17:33:06.281Z,57.90
2023-04-06T17:39:09.958Z,59.90
2023-04-06T17:45:13.580Z,60.00
2023-04-06T17:51:16.850Z,46.30
2023-04-06T17:54:18.390Z,39.70
2023-04-06T17:57:20.742Z,42.60
2023-04-06T18:00:22.704Z,42.60
2023-04-06T18:06:26.044Z,53.70
2023-04-06T18:12:32.774Z,53.00
2023-04-06T18:15:35.502Z,52.20
2023-04-06T18:18:37.233Z,54.90
2023-04-06T18:21:39.089Z,53.80
2023-04-06T18:24:43.002Z,54.20
2023-04-06T18:27:45.094Z,51.20
2023-04-06T18:30:47.088Z,56.50
2023-04-06T18:36:51.371Z,56.50
2023-04-06T18:39:53.925Z,52.40
2023-04-06T18:45:57.380Z,57.70
2023-04-06T18:48:58.978Z,59.00
2023-04-06T18:52:00.745Z,59.10
2023-04-06T18:55:02.339Z,61.80
2023-04-06T19:01:06.059Z,71.90
2023-04-06T19:04:08.090Z,66.20
2023-04-06T19:07:10.013Z,65.80
2023-04-06T19:13:13.473Z,66.30
2023-04-06T19:16:15.880Z,67.10
2023-04-06T19:19:18.941Z,70.00
2023-04-06T19:22:20.644Z,65.60
2023-04-06T19:25:22.653Z,61.80
2023-04-06T19:28:24.505Z,62.40
2023-04-06T19:34:28.258Z,84.20
2023-04-06T19:37:29.918Z,68.00
2023-04-06T19:40:31.547Z,65.30
2023-04-06T19:43:52.014Z,65.20
2023-04-06T19:46:53.611Z,67.80
2023-04-06T19:49:55.317Z,64.00
2023-04-06T19:55:58.748Z,76.40
2023-04-06T19:59:00.372Z,73.80
2023-04-06T20:02:02.196Z,70.70
2023-04-06T20:05:04.127Z,73.10
2023-04-06T20:11:07.280Z,87.80
2023-04-06T20:14:08.955Z,91.60
2023-04-06T20:17:10.532Z,97.20
2023-04-06T20:20:12.193Z,96.60
2023-04-06T20:23:13.944Z,94.10
2023-04-06T20:29:17.131Z,87.30
2023-04-06T20:32:18.888Z,81.30
2023-04-06T20:35:20.637Z,81.60
2023-04-06T20:38:32.300Z,79.60
2023-04-06T20:41:35.007Z,79.90
2023-04-06T20:44:36.567Z,77.50
2023-04-06T20:47:38.436Z,67.10
2023-04-06T20:50:40.003Z,69.40
2023-04-06T20:53:41.557Z,67.80
2023-04-06T20:56:43.423Z,69.60
2023-04-06T21:02:46.804Z,73.60
2023-04-06T21:05:52.957Z,76.50
2023-04-06T21:08:54.584Z,75.60
2023-04-06T21:11:56.126Z,81.80
2023-04-06T21:14:57.717Z,84.90
2023-04-06T21:17:59.417Z,85.00
2023-04-06T21:21:01.019Z,94.20
2023-04-06T21:24:02.778Z,91.50
2023-04-06T21:27:04.324Z,95.80
2023-04-06T21:30:06.543Z,95.60
2023-04-06T21:33:08.180Z,98.50
2023-04-06T21:36:09.923Z,91.90
2023-04-06T21:39:11.473Z,91.90
2023-04-06T21:42:13.098Z,97.50
2023-04-06T21:45:14.821Z,97.50
2023-04-06T21:48:16.794Z,92.00
2023-04-06T21:51:19.559Z,89.90
2023-04-06T21:54:21.346Z,89.60
2023-04-06T21:57:23.847Z,97.00
2023-04-06T22:00:25.501Z,94.60
2023-04-06T22:03:27.858Z,90.60
2023-04-06T22:06:29.769Z,99.80
2023-04-06T22:09:31.881Z,102.00
2023-04-06T22:12:33.532Z,95.90
2023-04-06T22:18:38.854Z,102.30
2023-04-06T22:21:40.821Z,99.30
2023-04-06T22:24:42.391Z,107.00
2023-04-06T22:27:43.973Z,107.00
2023-04-06T22:30:45.595Z,104.80
2023-04-06T22:33:47.111Z,108.20
2023-04-06T22:36:48.882Z,108.50
2023-04-06T22:42:51.983Z,108.40
2023-04-06T22:45:53.654Z,109.30
2023-04-06T22:48:55.208Z,110.90
2023-04-06T22:51:56.813Z,105.30
2023-04-06T22:54:58.373Z,111.10
2023-04-06T22:57:59.985Z,106.60
2023-04-06T23:01:01.596Z,109.70
2023-04-06T23:04:03.331Z,110.10
2023-04-06T23:10:06.988Z,120.60
2023-04-06T23:13:09.750Z,116.40
2023-04-06T23:16:11.298Z,112.90
2023-04-06T23:19:13.168Z,114.10
2023-04-06T23:25:16.385Z,110.20
2023-04-06T23:28:18.061Z,114.70
2023-04-06T23:34:21.327Z,118.40
2023-04-06T23:37:22.858Z,118.30
2023-04-06T23:40:24.450Z,120.50
2023-04-06T23:43:25.987Z,112.70
2023-04-06T23:46:27.583Z,115.00
2023-04-06T23:49:29.236Z,106.20
2023-04-06T23:52:30.772Z,112.10
2023-04-06T23:55:32.480Z,105.70
2023-04-06T23:58:34.035Z,107.80
